• Join FlightAware (Why Join?)
  • Login
  • US Flag 
08:51PM EDT


 

Airport Tracker/Info


-or-


 

Live Flight TrackerFlight Track Log ✈ G-VMEG ✈ 05-May-2012 ✈ EGLL / LHR - RJAA / NRT

Flight Track Log - Related Links

Times and Time Zones

All times are in EDT time to prevent confusion due to time zone crossing. See the G-VMEG flight status page for this flight to view local times or setup timezone preferences in your user account.

Time Position Orientation Groundspeed Altitude Reporting Facility
EDT Latitude Longitude Course Direction KTS MPH feet Rate Location/Type
09:20AM 51.4709 -0.3917 50° Northeast 178 205 1,700  Level FlightAware ADS-B
09:21AM 51.4817 -0.3708 49° Northeast 178 205 2,100 1,140 Climbing FlightAware ADS-B
09:21AM 51.4847 -0.3652 50° Northeast 189 217 2,200 960 Climbing FlightAware ADS-B
09:22AM 51.5175 -0.3030 55° Northeast 242 278 3,000 1,080 Climbing FlightAware ADS-B
09:22AM 51.5280 -0.2793 70° East 248 285 3,400 1,500 Climbing FlightAware ADS-B
09:22AM 51.5344 -0.2517 70° East 259 298 3,800 2,100 Climbing FlightAware ADS-B
09:22AM 51.5408 -0.2237 54° Northeast 259 298 4,500 2,400 Climbing FlightAware ADS-B
09:22AM 51.5455 -0.2132 42° Northeast 264 304 4,700 1,620 Climbing FlightAware ADS-B
09:23AM 51.5500 -0.2066 34° Northeast 268 308 4,800 1,500 Climbing FlightAware ADS-B
09:23AM 51.5531 -0.2032 22° Northeast 268 308 4,900 2,280 Climbing FlightAware ADS-B
09:23AM 51.5641 -0.1960 15° North 269 310 5,300 2,400 Climbing FlightAware ADS-B
09:23AM 51.5705 -0.1933 15° North 271 312 5,500 1,680 Climbing FlightAware ADS-B
09:23AM 51.5905 -0.1846 17° North 280 322 5,900 900 Climbing FlightAware ADS-B
09:23AM 51.6105 -0.1747 17° North 284 327 6,000 360 Climbing FlightAware ADS-B
09:24AM 51.6309 -0.1644 17° North 287 330 6,100 360 Climbing FlightAware ADS-B
09:24AM 51.6509 -0.1544 21° North 286 329 6,200 540 Climbing FlightAware ADS-B
09:24AM 51.6575 -0.1502 25° Northeast 286 329 6,300 960 Climbing FlightAware ADS-B
09:24AM 51.6647 -0.1448 28° Northeast 289 333 6,400 1,740 Climbing FlightAware ADS-B
09:24AM 51.6781 -0.1335 28° Northeast 292 336 6,800 2,040 Climbing FlightAware ADS-B
09:25AM 51.6967 -0.1177 31° Northeast 296 341 7,300 2,220 Climbing FlightAware ADS-B
09:25AM 51.7103 -0.1045 40° Northeast 300 345 7,800 2,220 Climbing FlightAware ADS-B
09:25AM 51.7148 -0.0984 47° Northeast 302 348 7,900 1,500 Climbing FlightAware ADS-B
09:25AM 51.7185 -0.0921 53° Northeast 302 348 8,000 1,680 Climbing FlightAware ADS-B
09:25AM 51.7212 -0.0863 57° Northeast 303 349 8,100 2,520 Climbing FlightAware ADS-B
09:25AM 51.7239 -0.0795 62° Northeast 303 349 8,300 2,400 Climbing FlightAware ADS-B
09:25AM 51.7349 -0.0467 62° Northeast 305 351 8,900 2,220 Climbing FlightAware ADS-B
09:25AM 51.7453 -0.0150 62° Northeast 306 352 9,500 2,040 Climbing FlightAware ADS-B
09:26AM 51.7657 0.0478 62° Northeast 311 358 10,500 1,440 Climbing FlightAware ADS-B
09:27AM 51.7873 0.1130 62° Northeast 339 390 11,000 840 Climbing FlightAware ADS-B
09:27AM 51.8117 0.1876 62° Northeast 366 421 11,400 960 Climbing FlightAware ADS-B
09:28AM 51.8370 0.2653 63° Northeast 385 443 12,000 1,560 Climbing FlightAware ADS-B
09:28AM 51.8615 0.3422 62° Northeast 391 450 13,000 2,160 Climbing FlightAware ADS-B
09:29AM 51.8878 0.4221 61° Northeast 392 451 14,200 1,980 Climbing FlightAware ADS-B
09:29AM 51.9107 0.4903 56° Northeast 399 459 14,900 1,680 Climbing FlightAware ADS-B
09:30AM 51.9444 0.5729 56° Northeast 406 467 15,900 1,740 Climbing FlightAware ADS-B
09:30AM 51.9779 0.6531 57° Northeast 411 473 16,800 1,620 Climbing FlightAware ADS-B
09:31AM 52.0100 0.7324 57° Northeast 417 480 17,600 1,560 Climbing FlightAware ADS-B
09:31AM 52.0422 0.8131 57° Northeast 424 488 18,400 1,560 Climbing FlightAware ADS-B
09:32AM 52.0770 0.9006 57° Northeast 428 493 19,300 1,560 Climbing FlightAware ADS-B
09:32AM 52.1102 0.9844 57° Northeast 434 499 20,100 1,500 Climbing FlightAware ADS-B
09:33AM 52.1441 1.0702 57° Northeast 436 502 20,900 1,440 Climbing FlightAware ADS-B
09:33AM 52.1768 1.1534 57° Northeast 442 509 21,600 1,380 Climbing FlightAware ADS-B
09:34AM 52.2103 1.2387 57° Northeast 447 514 22,300 1,320 Climbing FlightAware ADS-B
09:34AM 52.2443 1.3257 57° Northeast 451 519 23,000 1,200 Climbing FlightAware ADS-B
09:35AM 52.2808 1.4193 58° Northeast 457 526 23,600 1,200 Climbing FlightAware ADS-B
09:35AM 52.3180 1.5151 58° Northeast 457 526 24,300 1,200 Climbing FlightAware ADS-B
09:36AM 52.3977 1.7216 57° Northeast 466 536 25,700 1,020 Climbing FlightAware ADS-B
09:38AM 52.4790 1.9304 32° Northeast 477 549 26,800 -6,360 Climbing FlightAware ADS-B
09:41AM 52.8300 2.2960 43° Northeast -1 -300 Descending FlightAware Direct Aircraft Datalink
09:45AM 53.2512 2.7627 44° Northeast  Level Estimated
09:46AM 53.3546 2.8769 44° Northeast  Level Estimated
09:47AM 53.4579 2.9917 44° Northeast  Level Estimated
09:48AM 53.5611 3.1071 44° Northeast  Level Estimated
09:49AM 53.6642 3.2230 45° Northeast  Level Estimated
09:50AM 53.7672 3.3395 45° Northeast  Level Estimated
09:51AM 53.8701 3.4565 45° Northeast  Level Estimated
09:52AM 53.9729 3.5742 45° Northeast  Level Estimated
09:53AM 54.0755 3.6924 45° Northeast  Level Estimated
09:54AM 54.1780 3.8112 46° Northeast  Level Estimated
09:55AM 54.2804 3.9306 46° Northeast  Level Estimated
09:56AM 54.3827 4.0506 46° Northeast  Level Estimated
09:57AM 54.4849 4.1712 46° Northeast  Level Estimated
09:58AM 54.5869 4.2924 47° Northeast  Level Estimated
09:59AM 54.6889 4.4142 47° Northeast  Level Estimated
10:00AM 54.7907 4.5366 47° Northeast  Level Estimated
10:01AM 54.8923 4.6596 47° Northeast  Level Estimated
10:02AM 54.9939 4.7833 48° Northeast  Level Estimated
10:03AM 55.0953 4.9076 48° Northeast  Level Estimated
10:04AM 55.1966 5.0325 48° Northeast  Level Estimated
10:05AM 55.2978 5.1580 48° Northeast  Level Estimated
10:06AM 55.3988 5.2842 49° Northeast  Level Estimated
10:07AM 55.4998 5.4111 49° Northeast  Level Estimated
10:08AM 55.6005 5.5386 49° Northeast  Level Estimated
10:09AM 55.7012 5.6667 49° Northeast  Level Estimated
10:10AM 55.8017 5.7955 50° Northeast  Level Estimated
10:11AM 55.9021 5.9250 50° Northeast  Level Estimated
10:12AM 56.0023 6.0552 50° Northeast  Level Estimated
10:13AM 56.1024 6.1860 51° Northeast  Level Estimated
10:14AM 56.2024 6.3175 51° Northeast  Level Estimated
10:15AM 56.3113 6.4525 51° Northeast  Level Estimated
10:16AM 56.4492 6.6365 52° Northeast  Level Estimated
10:17AM 56.5487 6.7704 52° Northeast  Level Estimated
10:18AM 56.6480 6.9050 52° Northeast  Level Estimated
10:19AM 56.7472 7.0403 53° Northeast  Level Estimated
10:20AM 56.8462 7.1764 53° Northeast  Level Estimated
10:21AM 56.9451 7.3131 53° Northeast  Level Estimated
10:22AM 57.0439 7.4506 54° Northeast  Level Estimated
10:23AM 57.1425 7.5888 54° Northeast  Level Estimated
10:24AM 57.2409 7.7277 55° Northeast  Level Estimated
10:25AM 57.3392 7.8674 55° Northeast  Level Estimated
10:26AM 57.4373 8.0078 55° Northeast  Level Estimated
10:27AM 57.5353 8.1490 56° Northeast  Level Estimated
10:28AM 57.6303 8.2868 56° Northeast  Level Estimated
10:29AM 57.7251 8.4253 57° Northeast  Level Estimated
10:30AM 57.8197 8.5645 57° Northeast  Level Estimated
10:31AM 57.9171 8.7087 58° Northeast  Level Estimated
10:32AM 58.0143 8.8537 58° Northeast  Level Estimated
10:33AM 58.1113 8.9995 59° Northeast  Level Estimated
10:34AM 58.2081 9.1461 59° Northeast  Level Estimated
10:35AM 58.3048 9.2934 60° Northeast  Level Estimated
10:36AM 58.4013 9.4416 60° Northeast  Level Estimated
10:37AM 58.4977 9.5906 61° Northeast  Level Estimated
10:38AM 58.5938 9.7404 61° Northeast  Level Estimated
10:39AM 58.6898 9.8910 62° Northeast  Level Estimated
10:40AM 58.7856 10.0425 62° Northeast  Level Estimated
10:41AM 58.8813 10.1948 63° Northeast  Level Estimated
10:42AM 58.9767 10.3479 64° Northeast  Level Estimated
10:43AM 59.0720 10.5019 64° Northeast  Level Estimated
10:44AM 59.1671 10.6567 65° Northeast  Level Estimated
10:45AM 59.2620 10.8125 66° East  Level Estimated
10:46AM 59.3567 10.9690 67° East  Level Estimated
10:47AM 59.4512 11.1265 67° East  Level Estimated
10:48AM 59.5456 11.2848 68° East  Level Estimated
10:49AM 59.6397 11.4440 69° East  Level Estimated
10:50AM 59.7337 11.6042 70° East  Level Estimated
10:51AM 59.8274 11.7652 71° East  Level Estimated
10:52AM 59.9210 11.9271 72° East  Level Estimated
10:53AM 60.0144 12.0899 73° East  Level Estimated
10:54AM 60.1075 12.2537 74° East  Level Estimated
10:55AM 60.2005 12.4184 75° East  Level Estimated
10:56AM 60.2932 12.5840 76° East  Level Estimated
10:57AM 60.3857 12.7506 77° East  Level Estimated
10:58AM 60.4781 12.9181 78° East  Level Estimated
10:59AM 60.5702 13.0866 80° East  Level Estimated
11:00AM 60.6621 13.2560 81° East  Level Estimated
11:01AM 60.7538 13.4264 83° East  Level Estimated
11:02AM 60.8453 13.5978 84° East  Level Estimated
11:03AM 60.9365 13.7702 86° East  Level Estimated
11:04AM 61.0275 13.9435 87° East  Level Estimated
11:05AM 61.1184 14.1179 89° East  Level Estimated
11:06AM 61.2089 14.2932 91° East  Level Estimated
11:07AM 61.2993 14.4696 93° East  Level Estimated
11:08AM 61.3894 14.6469 95° East  Level Estimated
11:09AM 61.4793 14.8253 97° East  Level Estimated
11:10AM 61.5690 15.0048 100° East  Level Estimated
11:11AM 61.0110 20.4440 45° Northeast -1  Level FlightAware Direct Aircraft Datalink
11:11AM 61.6584 15.1853 50° Northeast  Level Estimated
11:12AM 61.7476 15.3668 50° Northeast  Level Estimated
11:13AM 61.8365 15.5493 50° Northeast  Level Estimated
11:14AM 61.9252 15.7330 51° Northeast  Level Estimated
11:15AM 62.0137 15.9177 51° Northeast  Level Estimated
11:16AM 62.1019 16.1035 51° Northeast  Level Estimated
11:17AM 62.1898 16.2903 51° Northeast  Level Estimated
11:18AM 62.2775 16.4783 51° Northeast  Level Estimated
11:19AM 62.3650 16.6673 52° Northeast  Level Estimated
11:20AM 62.4522 16.8575 52° Northeast  Level Estimated
11:21AM 62.5391 17.0487 52° Northeast  Level Estimated
11:22AM 62.6258 17.2411 52° Northeast  Level Estimated
11:23AM 62.7122 17.4346 53° Northeast  Level Estimated
11:24AM 62.7983 17.6292 53° Northeast  Level Estimated
11:25AM 62.8842 17.8250 53° Northeast  Level Estimated
11:26AM 62.9698 18.0219 53° Northeast  Level Estimated
11:27AM 63.0551 18.2200 54° Northeast  Level Estimated
11:28AM 63.1401 18.4193 54° Northeast  Level Estimated
11:29AM 63.2249 18.6197 54° Northeast  Level Estimated
11:30AM 63.3093 18.8213 54° Northeast  Level Estimated
11:31AM 63.3935 19.0240 55° Northeast  Level Estimated
11:32AM 63.4774 19.2280 55° Northeast  Level Estimated
11:33AM 63.5611 19.4331 55° Northeast  Level Estimated
11:34AM 63.6444 19.6395 55° Northeast  Level Estimated
11:35AM 63.7274 19.8471 56° Northeast  Level Estimated
11:36AM 63.8101 20.0559 56° Northeast  Level Estimated
11:37AM 63.8925 20.2659 56° Northeast  Level Estimated
11:38AM 63.9746 20.4772 57° Northeast  Level Estimated
11:39AM 64.0564 20.6897 57° Northeast  Level Estimated
11:40AM 63.3357 26.4726 50° Northeast  Level Estimated
11:41AM 63.4173 26.7164 50° Northeast  Level Estimated
11:42AM 63.4911 26.9391 50° Northeast  Level Estimated
11:43AM 63.5645 27.1631 50° Northeast  Level Estimated
11:44AM 63.6376 27.3881 50° Northeast  Level Estimated
11:45AM 63.7104 27.6144 51° Northeast  Level Estimated
11:46AM 63.7828 27.8418 51° Northeast  Level Estimated
11:47AM 63.8548 28.0704 51° Northeast  Level Estimated
11:48AM 63.9265 28.3001 51° Northeast  Level Estimated
11:49AM 63.9978 28.5310 51° Northeast  Level Estimated
11:50AM 64.0687 28.7631 51° Northeast  Level Estimated
11:51AM 64.1393 28.9964 51° Northeast  Level Estimated
11:52AM 64.2095 29.2308 52° Northeast  Level Estimated
11:53AM 64.2793 29.4665 52° Northeast  Level Estimated
11:54AM 64.3487 29.7033 52° Northeast  Level Estimated
11:55AM 64.4177 29.9413 52° Northeast  Level Estimated
11:56AM 64.4864 30.1806 52° Northeast  Level Estimated
11:57AM 64.5547 30.4210 52° Northeast  Level Estimated
11:58AM 64.6225 30.6626 52° Northeast  Level Estimated
11:59AM 64.6900 30.9055 53° Northeast  Level Estimated
12:00PM 64.7571 31.1495 53° Northeast  Level Estimated
12:01PM 64.8238 31.3948 53° Northeast  Level Estimated
12:02PM 64.8900 31.6413 53° Northeast  Level Estimated
12:03PM 64.9559 31.8890 53° Northeast  Level Estimated
12:04PM 65.0213 32.1379 53° Northeast  Level Estimated
12:05PM 65.0864 32.3880 53° Northeast  Level Estimated
12:06PM 65.1510 32.6394 53° Northeast  Level Estimated
12:07PM 65.2152 32.8919 54° Northeast  Level Estimated
12:08PM 65.2789 33.1457 54° Northeast  Level Estimated
12:09PM 65.3423 33.4007 54° Northeast  Level Estimated
12:10PM 65.4052 33.6570 54° Northeast  Level Estimated
12:11PM 65.4676 33.9145 54° Northeast  Level Estimated
12:12PM 65.5296 34.1732 54° Northeast  Level Estimated
12:13PM 65.5912 34.4331 54° Northeast  Level Estimated
12:14PM 65.6524 34.6943 54° Northeast  Level Estimated
12:15PM 65.7131 34.9567 54° Northeast  Level Estimated
12:16PM 65.7733 35.2203 54° Northeast  Level Estimated
12:17PM 65.8331 35.4852 54° Northeast  Level Estimated
12:18PM 65.8924 35.7513 54° Northeast  Level Estimated
12:19PM 65.9512 36.0186 54° Northeast  Level Estimated
12:20PM 66.0096 36.2872 54° Northeast  Level Estimated
12:21PM 66.0676 36.5569 54° Northeast  Level Estimated
12:22PM 66.1250 36.8279 54° Northeast  Level Estimated
12:23PM 66.1820 37.1001 54° Northeast  Level Estimated
12:24PM 66.2385 37.3736 54° Northeast  Level Estimated
12:25PM 66.2945 37.6483 54° Northeast  Level Estimated
12:26PM 66.3500 37.9241 54° Northeast  Level Estimated
12:27PM 66.4050 38.2013 54° Northeast  Level Estimated
12:28PM 66.4595 38.4796 54° Northeast  Level Estimated
12:29PM 66.5136 38.7591 54° Northeast  Level Estimated
12:30PM 66.5671 39.0399 54° Northeast  Level Estimated
12:31PM 66.6202 39.3218 53° Northeast  Level Estimated
12:32PM 66.6727 39.6050 53° Northeast  Level Estimated
12:33PM 66.7247 39.8894 53° Northeast  Level Estimated
12:34PM 66.7762 40.1749 52° Northeast  Level Estimated
12:35PM 66.8272 40.4617 52° Northeast  Level Estimated
12:36PM 66.8776 40.7496 51° Northeast  Level Estimated
12:37PM 66.9276 41.0387 51° Northeast  Level Estimated
12:38PM 66.9770 41.3290 50° Northeast  Level Estimated
12:39PM 67.0259 41.6205 49° Northeast  Level Estimated
12:40PM 67.0742 41.9132 48° Northeast  Level Estimated
12:41PM 68.1160 45.0880 66° East -1  Level FlightAware Direct Aircraft Datalink
12:41PM 67.1220 42.2070 62° Northeast  Level Estimated
12:42PM 67.1693 42.5019 62° Northeast  Level Estimated
12:43PM 67.2160 42.7981 62° Northeast  Level Estimated
12:44PM 67.2622 43.0953 62° Northeast  Level Estimated
12:45PM 67.3078 43.3937 62° Northeast  Level Estimated
12:46PM 67.3529 43.6933 63° Northeast  Level Estimated
12:47PM 67.3974 43.9939 63° Northeast  Level Estimated
12:48PM 67.4413 44.2957 63° Northeast  Level Estimated
12:49PM 67.4847 44.5986 63° Northeast  Level Estimated
12:50PM 67.5275 44.9026 64° Northeast  Level Estimated
12:51PM 67.5697 45.2077 64° Northeast  Level Estimated
12:52PM 67.6114 45.5138 64° Northeast  Level Estimated
12:53PM 67.6525 45.8211 64° Northeast  Level Estimated
12:54PM 67.6930 46.1294 64° Northeast  Level Estimated
12:55PM 67.7329 46.4387 65° Northeast  Level Estimated
12:56PM 67.7722 46.7491 65° Northeast  Level Estimated
12:57PM 67.8110 47.0606 65° Northeast  Level Estimated
12:58PM 67.8491 47.3730 65° Northeast  Level Estimated
12:59PM 67.8867 47.6865 65° Northeast  Level Estimated
01:00PM 67.9236 48.0010 66° East  Level Estimated
01:01PM 67.9600 48.3165 66° East  Level Estimated
01:02PM 67.9957 48.6330 66° East  Level Estimated
01:03PM 68.0308 48.9504 66° East  Level Estimated
01:04PM 68.0653 49.2688 67° East  Level Estimated
01:05PM 68.0992 49.5881 67° East  Level Estimated
01:06PM 68.1325 49.9084 67° East  Level Estimated
01:07PM 68.1652 50.2296 67° East  Level Estimated
01:08PM 68.1972 50.5517 67° East  Level Estimated
01:09PM 68.2286 50.8747 68° East  Level Estimated
01:10PM 68.2594 51.1986 68° East  Level Estimated
01:11PM 69.0830 54.9688 73° East  Level Estimated
01:12PM 69.1146 55.4646 74° East  Level Estimated
01:13PM 69.1356 55.8074 74° East  Level Estimated
01:14PM 69.1559 56.1508 74° East  Level Estimated
01:15PM 69.1756 56.4949 74° East  Level Estimated
01:16PM 69.1945 56.8395 74° East  Level Estimated
01:17PM 69.2128 57.1848 75° East  Level Estimated
01:18PM 69.2303 57.5306 75° East  Level Estimated
01:19PM 69.2472 57.8769 75° East  Level Estimated
01:20PM 69.2633 58.2238 75° East  Level Estimated
01:21PM 69.2788 58.5712 76° East  Level Estimated
01:22PM 69.2936 58.9191 76° East  Level Estimated
01:23PM 69.3077 59.2674 76° East  Level Estimated
01:24PM 69.3210 59.6162 76° East  Level Estimated
01:25PM 69.3337 59.9654 76° East  Level Estimated
01:26PM 69.3457 60.3150 76° East  Level Estimated
01:27PM 69.3569 60.6650 77° East  Level Estimated
01:28PM 69.3675 61.0154 77° East  Level Estimated
01:29PM 69.3773 61.3660 77° East  Level Estimated
01:30PM 69.3865 61.7170 77° East  Level Estimated
01:31PM 69.3949 62.0683 77° East  Level Estimated
01:32PM 69.4026 62.4198 77° East  Level Estimated
01:33PM 69.4097 62.7715 77° East  Level Estimated
01:34PM 69.4159 63.1235 78° East  Level Estimated
01:35PM 69.4215 63.4757 78° East  Level Estimated
01:36PM 69.4264 63.8281 78° East  Level Estimated
01:37PM 69.4306 64.1806 78° East  Level Estimated
01:38PM 69.4340 64.5332 78° East  Level Estimated
01:39PM 69.4368 64.8859 78° East  Level Estimated
01:40PM 69.4388 65.2387 78° East  Level Estimated
01:41PM 69.4401 65.5916 78° East  Level Estimated
01:42PM 69.4407 65.9445 78° East  Level Estimated
01:43PM 69.4406 66.2973 78° East  Level Estimated
01:44PM 69.4397 66.6502 78° East  Level Estimated
01:45PM 69.4382 67.0031 78° East  Level Estimated
01:46PM 69.4359 67.3558 78° East  Level Estimated
01:47PM 69.4329 67.7085 78° East  Level Estimated
01:48PM 69.4292 68.0611 78° East  Level Estimated
01:49PM 69.4248 68.4136 78° East  Level Estimated
01:50PM 69.4197 68.7658 78° East  Level Estimated
01:51PM 69.4139 69.1180 77° East  Level Estimated
01:52PM 69.4073 69.4699 77° East  Level Estimated
01:53PM 69.4001 69.8216 77° East  Level Estimated
01:54PM 69.3921 70.1730 77° East  Level Estimated
01:55PM 69.3834 70.5242 76° East  Level Estimated
01:56PM 69.3740 70.8750 76° East  Level Estimated
01:57PM 69.3640 71.2256 75° East  Level Estimated
01:58PM 69.3531 71.5758 75° East  Level Estimated
01:59PM 69.3416 71.9257 74° East  Level Estimated
02:00PM 69.3294 72.2751 73° East  Level Estimated
02:01PM 69.3165 72.6242 73° East  Level Estimated
02:02PM 69.3029 72.9728 72° East  Level Estimated
02:03PM 69.2886 73.3210 71° East  Level Estimated
02:04PM 69.2736 73.6687 69° East  Level Estimated
02:05PM 69.2579 74.0160 68° East  Level Estimated
02:06PM 69.2414 74.3627 66° East  Level Estimated
02:07PM 69.2243 74.7088 64° Northeast  Level Estimated
02:08PM 69.2066 75.0545 62° Northeast  Level Estimated
02:09PM 69.1881 75.3995 60° Northeast  Level Estimated
02:10PM 69.1689 75.7440 57° Northeast  Level Estimated
02:11PM 69.8940 79.0860 91° East -1  Level FlightAware Direct Aircraft Datalink
02:11PM 69.1490 76.0878 86° East  Level Estimated
02:12PM 69.1285 76.4310 86° East  Level Estimated
02:13PM 69.1072 76.7735 86° East  Level Estimated
02:14PM 69.0853 77.1154 87° East  Level Estimated
02:15PM 69.0627 77.4566 87° East  Level Estimated
02:16PM 69.0395 77.7970 87° East  Level Estimated
02:17PM 69.0155 78.1367 87° East  Level Estimated
02:18PM 68.9909 78.4757 88° East  Level Estimated
02:19PM 68.9656 78.8139 88° East  Level Estimated
02:20PM 68.9397 79.1514 88° East  Level Estimated
02:21PM 68.9130 79.4880 88° East  Level Estimated
02:22PM 68.8858 79.8238 88° East  Level Estimated
02:23PM 68.8578 80.1587 89° East  Level Estimated
02:24PM 68.8292 80.4928 89° East  Level Estimated
02:25PM 68.8000 80.8261 89° East  Level Estimated
02:26PM 68.7701 81.1584 89° East  Level Estimated
02:27PM 68.7395 81.4899 89° East  Level Estimated
02:28PM 68.7084 81.8204 90° East  Level Estimated
02:29PM 68.6765 82.1500 90° East  Level Estimated
02:30PM 68.6440 82.4787 90° East  Level Estimated
02:31PM 68.6109 82.8064 90° East  Level Estimated
02:32PM 68.5772 83.1331 90° East  Level Estimated
02:33PM 68.5428 83.4588 91° East  Level Estimated
02:34PM 68.5078 83.7835 91° East  Level Estimated
02:35PM 68.4721 84.1072 91° East  Level Estimated
02:36PM 68.4359 84.4299 91° East  Level Estimated
02:37PM 68.3990 84.7516 91° East  Level Estimated
02:38PM 68.3615 85.0722 91° East  Level Estimated
02:39PM 68.3234 85.3917 92° East  Level Estimated
02:40PM 68.2847 85.7102 92° East  Level Estimated
02:41PM 68.2453 86.0275 92° East  Level Estimated
02:41PM 68.7199 89.3680 97° East  Level Estimated
02:43PM 68.6346 89.9225 98° East  Level Estimated
02:44PM 68.5855 90.2345 98° East  Level Estimated
02:45PM 68.5358 90.5452 98° East  Level Estimated
02:46PM 68.4856 90.8544 98° East  Level Estimated
02:47PM 68.4348 91.1623 98° East  Level Estimated
02:48PM 68.3834 91.4688 98° East  Level Estimated
02:49PM 68.3315 91.7739 98° East  Level Estimated
02:50PM 68.2790 92.0776 99° East  Level Estimated
02:51PM 68.2259 92.3799 99° East  Level Estimated
02:52PM 68.1724 92.6808 99° East  Level Estimated
02:53PM 68.1182 92.9803 99° East  Level Estimated
02:54PM 68.0636 93.2784 99° East  Level Estimated
02:55PM 68.0084 93.5750 99° East  Level Estimated
02:56PM 67.9527 93.8703 99° East  Level Estimated
02:57PM 67.8964 94.1641 99° East  Level Estimated
02:58PM 67.8396 94.4565 99° East  Level Estimated
02:59PM 67.7823 94.7475 100° East  Level Estimated
03:00PM 67.7245 95.0370 100° East  Level Estimated
03:01PM 67.6662 95.3251 100° East  Level Estimated
03:02PM 67.6074 95.6118 100° East  Level Estimated
03:03PM 67.5480 95.8970 100° East  Level Estimated
03:04PM 67.4882 96.1809 100° East  Level Estimated
03:05PM 67.4279 96.4633 100° East  Level Estimated
03:06PM 67.3671 96.7442 100° East  Level Estimated
03:07PM 67.3058 97.0237 100° East  Level Estimated
03:08PM 67.2440 97.3018 100° East  Level Estimated
03:09PM 67.1817 97.5785 100° East  Level Estimated
03:10PM 67.1190 97.8537 100° East  Level Estimated
03:11PM 67.0558 98.1275 100° East  Level Estimated
03:12PM 66.9921 98.3999 100° East  Level Estimated
03:13PM 66.9279 98.6708 100° East  Level Estimated
03:14PM 66.8633 98.9403 100° East  Level Estimated
03:15PM 66.7983 99.2084 100° East  Level Estimated
03:16PM 66.7328 99.4751 100° East  Level Estimated
03:17PM 66.6668 99.7403 100° East  Level Estimated
03:18PM 66.6004 100.0042 100° East  Level Estimated
03:19PM 66.5336 100.2666 100° East  Level Estimated
03:20PM 66.4663 100.5276 100° East  Level Estimated
03:21PM 66.3986 100.7872 100° East  Level Estimated
03:22PM 66.3305 101.0454 100° East  Level Estimated
03:23PM 66.2619 101.3022 100° East  Level Estimated
03:24PM 66.1929 101.5576 100° East  Level Estimated
03:25PM 66.1235 101.8116 99° East  Level Estimated
03:26PM 66.0537 102.0642 99° East  Level Estimated
03:27PM 65.9835 102.3154 99° East  Level Estimated
03:28PM 65.9128 102.5653 99° East  Level Estimated
03:29PM 65.8418 102.8137 99° East  Level Estimated
03:30PM 65.7703 103.0608 99° East  Level Estimated
03:31PM 65.6985 103.3066 99° East  Level Estimated
03:32PM 65.6263 103.5509 98° East  Level Estimated
03:33PM 65.5536 103.7939 98° East  Level Estimated
03:34PM 65.4806 104.0356 98° East  Level Estimated
03:35PM 65.4072 104.2759 98° East  Level Estimated
03:36PM 65.3335 104.5148 98° East  Level Estimated
03:37PM 65.2593 104.7524 97° East  Level Estimated
03:38PM 65.1848 104.9887 97° East  Level Estimated
03:39PM 65.1099 105.2236 97° East  Level Estimated
03:40PM 65.0347 105.4573 97° East  Level Estimated
03:41PM 64.9591 105.6896 96° East  Level Estimated
03:42PM 64.8831 105.9206 96° East  Level Estimated
03:43PM 64.8068 106.1503 96° East  Level Estimated
03:44PM 64.7301 106.3787 95° East  Level Estimated
03:45PM 64.6531 106.6058 95° East  Level Estimated
03:46PM 64.5757 106.8316 94° East  Level Estimated
03:47PM 64.4980 107.0561 94° East  Level Estimated
03:48PM 64.4199 107.2794 94° East  Level Estimated
03:49PM 64.3415 107.5013 93° East  Level Estimated
03:50PM 64.2628 107.7220 93° East  Level Estimated
03:51PM 64.1837 107.9415 92° East  Level Estimated
03:52PM 64.1043 108.1597 92° East  Level Estimated
03:53PM 64.0246 108.3767 91° East  Level Estimated
03:54PM 63.9446 108.5924 90° East  Level Estimated
03:55PM 63.8642 108.8069 90° East  Level Estimated
03:56PM 63.7836 109.0201 89° East  Level Estimated
03:57PM 63.7026 109.2322 88° East  Level Estimated
03:58PM 63.6213 109.4430 88° East  Level Estimated
03:59PM 63.5397 109.6527 87° East  Level Estimated
04:00PM 63.4578 109.8611 86° East  Level Estimated
04:01PM 63.3756 110.0683 85° East  Level Estimated
04:02PM 63.2931 110.2744 85° East  Level Estimated
04:03PM 63.2103 110.4793 84° East  Level Estimated
04:04PM 63.1272 110.6830 83° East  Level Estimated
04:05PM 63.0438 110.8855 82° East  Level Estimated
04:06PM 62.9602 111.0869 81° East  Level Estimated
04:07PM 62.8762 111.2871 80° East  Level Estimated
04:08PM 62.7920 111.4862 79° East  Level Estimated
04:09PM 62.7074 111.6842 78° East  Level Estimated
04:10PM 62.6227 111.8810 76° East  Level Estimated
04:11PM 62.5376 112.0767 75° East  Level Estimated
04:12PM 62.4522 112.2713 74° East  Level Estimated
04:13PM 62.3666 112.4647 73° East  Level Estimated
04:14PM 62.2808 112.6571 71° East  Level Estimated
04:15PM 62.1946 112.8484 70° East  Level Estimated
04:16PM 62.1082 113.0386 69° East  Level Estimated
04:17PM 62.0215 113.2277 67° East  Level Estimated
04:18PM 61.9346 113.4157 66° East  Level Estimated
04:19PM 61.8475 113.6026 64° Northeast  Level Estimated
04:20PM 61.7600 113.7885 62° Northeast  Level Estimated
04:21PM 61.6724 113.9734 61° Northeast  Level Estimated
04:22PM 61.5844 114.1572 59° Northeast  Level Estimated
04:23PM 61.4963 114.3399 57° Northeast  Level Estimated
04:24PM 61.4078 114.5216 56° Northeast  Level Estimated
04:25PM 61.3192 114.7023 54° Northeast  Level Estimated
04:26PM 63.3320 121.3430 148° Southeast -1  Level FlightAware Direct Aircraft Datalink
04:26PM 61.2303 114.8820 124° Southeast  Level Estimated
04:27PM 61.1412 115.0607 124° Southeast  Level Estimated
04:28PM 61.0518 115.2383 124° Southeast  Level Estimated
04:29PM 60.9622 115.4150 124° Southeast  Level Estimated
04:30PM 60.8724 115.5906 124° Southeast  Level Estimated
04:31PM 60.7823 115.7653 124° Southeast  Level Estimated
04:32PM 60.6921 115.9390 124° Southeast  Level Estimated
04:33PM 60.6016 116.1117 124° Southeast  Level Estimated
04:34PM 60.5108 116.2834 124° Southeast  Level Estimated
04:35PM 60.4199 116.4542 124° Southeast  Level Estimated
04:36PM 60.3287 116.6241 124° Southeast  Level Estimated
04:37PM 60.2374 116.7930 124° Southeast  Level Estimated
04:38PM 60.1458 116.9609 124° Southeast  Level Estimated
04:39PM 60.0540 117.1279 124° Southeast  Level Estimated
04:40PM 59.9620 117.2940 124° Southeast  Level Estimated
04:41PM 59.8697 117.4592 124° Southeast  Level Estimated
04:42PM 59.7773 117.6234 124° Southeast  Level Estimated
04:43PM 59.6847 117.7867 124° Southeast  Level Estimated
04:44PM 59.5919 117.9492 124° Southeast  Level Estimated
04:45PM 59.4988 118.1107 124° Southeast  Level Estimated
04:46PM 59.4056 118.2714 124° Southeast  Level Estimated
04:47PM 59.3122 118.4311 124° Southeast  Level Estimated
04:48PM 59.2186 118.5900 123° Southeast  Level Estimated
04:49PM 59.1247 118.7480 123° Southeast  Level Estimated
04:50PM 59.0308 118.9052 123° Southeast  Level Estimated
04:51PM 58.9366 119.0615 123° Southeast  Level Estimated
04:52PM 58.8422 119.2170 123° Southeast  Level Estimated
04:53PM 58.7476 119.3716 123° Southeast  Level Estimated
04:54PM 58.6529 119.5254 123° Southeast  Level Estimated
04:55PM 58.5579 119.6783 123° Southeast  Level Estimated
04:55PM 60.1508 125.2683 151° Southeast  Level Estimated
04:57PM 59.9529 125.4834 151° Southeast  Level Estimated
04:58PM 59.8438 125.6007 151° Southeast  Level Estimated
04:59PM 59.7347 125.7172 151° Southeast  Level Estimated
05:00PM 59.6254 125.8330 151° Southeast  Level Estimated
05:01PM 59.5160 125.9480 152° Southeast  Level Estimated
05:02PM 59.4065 126.0623 152° Southeast  Level Estimated
05:03PM 59.2969 126.1758 152° Southeast  Level Estimated
05:04PM 59.1873 126.2886 152° Southeast  Level Estimated
05:05PM 59.0775 126.4007 152° Southeast  Level Estimated
05:06PM 58.9676 126.5121 152° Southeast  Level Estimated
05:07PM 58.8576 126.6228 152° Southeast  Level Estimated
05:08PM 58.7476 126.7327 152° Southeast  Level Estimated
05:09PM 58.6374 126.8420 152° Southeast  Level Estimated
05:10PM 58.5272 126.9506 152° Southeast  Level Estimated
05:11PM 58.4168 127.0585 152° Southeast  Level Estimated
05:12PM 58.3064 127.1657 152° Southeast  Level Estimated
05:13PM 58.1959 127.2723 153° Southeast  Level Estimated
05:14PM 58.0853 127.3782 153° Southeast  Level Estimated
05:15PM 57.9746 127.4834 153° Southeast  Level Estimated
05:16PM 57.8638 127.5880 153° Southeast  Level Estimated
05:17PM 57.7529 127.6920 153° Southeast  Level Estimated
05:18PM 57.6420 127.7953 153° Southeast  Level Estimated
05:19PM 57.5310 127.8980 153° Southeast  Level Estimated
05:20PM 57.4198 128.0000 153° Southeast  Level Estimated
05:21PM 57.3086 128.1015 153° Southeast  Level Estimated
05:22PM 57.1974 128.2023 153° Southeast  Level Estimated
05:23PM 57.0860 128.3025 153° Southeast  Level Estimated
05:24PM 56.9746 128.4022 153° Southeast  Level Estimated
05:25PM 56.8630 128.5012 153° Southeast  Level Estimated
05:26PM 56.7514 128.5996 153° Southeast  Level Estimated
05:27PM 56.6398 128.6975 153° Southeast  Level Estimated
05:28PM 56.5280 128.7948 154° Southeast  Level Estimated
05:29PM 56.4162 128.8915 154° Southeast  Level Estimated
05:30PM 56.3043 128.9876 154° Southeast  Level Estimated
05:31PM 56.1923 129.0832 154° Southeast  Level Estimated
05:32PM 56.0803 129.1783 154° Southeast  Level Estimated
05:33PM 55.9682 129.2727 154° Southeast  Level Estimated
05:34PM 55.8560 129.3667 154° Southeast  Level Estimated
05:35PM 55.7437 129.4600 154° Southeast  Level Estimated
05:36PM 55.6314 129.5529 154° Southeast  Level Estimated
05:37PM 55.5190 129.6452 154° Southeast  Level Estimated
05:38PM 55.4065 129.7370 154° Southeast  Level Estimated
05:39PM 55.2939 129.8283 154° Southeast  Level Estimated
05:40PM 55.1813 129.9190 154° Southeast  Level Estimated
05:41PM 55.0687 130.0093 154° Southeast  Level Estimated
05:42PM 54.9559 130.0990 154° Southeast  Level Estimated
05:43PM 54.8431 130.1882 153° Southeast  Level Estimated
05:44PM 54.7302 130.2770 153° Southeast  Level Estimated
05:45PM 54.6173 130.3652 153° Southeast  Level Estimated
05:46PM 54.5043 130.4530 153° Southeast  Level Estimated
05:47PM 54.3912 130.5403 153° Southeast  Level Estimated
05:48PM 54.2781 130.6270 152° Southeast  Level Estimated
05:49PM 54.1649 130.7134 152° Southeast  Level Estimated
05:50PM 54.0517 130.7992 151° Southeast  Level Estimated
05:51PM 53.9384 130.8846 149° Southeast  Level Estimated
05:52PM 53.8250 130.9695 146° Southeast  Level Estimated
05:53PM 53.7116 131.0540 139° Southeast  Level Estimated
05:54PM 53.5981 131.1380 108° East  Level Estimated
05:55PM 53.4845 131.2215 10° North  Level Estimated
05:56PM 53.5770 131.2490 160° South -1  Level FlightAware Direct Aircraft Datalink
05:56PM 53.3709 131.3046 160° South  Level Estimated
05:57PM 53.2573 131.3873 160° South  Level Estimated
05:58PM 53.1435 131.4695 160° South  Level Estimated
05:59PM 53.0298 131.5513 160° South  Level Estimated
06:00PM 52.9159 131.6327 160° South  Level Estimated
06:01PM 52.8020 131.7136 160° South  Level Estimated
06:02PM 52.6881 131.7941 160° South  Level Estimated
06:03PM 52.5741 131.8742 160° South  Level Estimated
06:04PM 52.4600 131.9539 161° South  Level Estimated
06:05PM 52.3459 132.0331 161° South  Level Estimated
06:06PM 52.2318 132.1120 161° South  Level Estimated
06:07PM 52.1176 132.1904 161° South  Level Estimated
06:08PM 52.0033 132.2685 161° South  Level Estimated
06:09PM 51.8890 132.3461 161° South  Level Estimated
06:10PM 51.7746 132.4234 161° South  Level Estimated
06:11PM 51.6602 132.5003 161° South  Level Estimated
06:12PM 51.5458 132.5768 161° South  Level Estimated
06:13PM 51.4313 132.6529 161° South  Level Estimated
06:14PM 51.3167 132.7286 162° South  Level Estimated
06:15PM 51.2021 132.8039 162° South  Level Estimated
06:16PM 51.0874 132.8789 162° South  Level Estimated
06:17PM 50.9727 132.9535 162° South  Level Estimated
06:18PM 50.8580 133.0277 162° South  Level Estimated
06:19PM 50.7432 133.1016 162° South  Level Estimated
06:20PM 50.6283 133.1751 162° South  Level Estimated
06:21PM 50.5134 133.2482 162° South  Level Estimated
06:22PM 50.3985 133.3210 163° South  Level Estimated
06:23PM 50.2835 133.3935 163° South  Level Estimated
06:24PM 50.1685 133.4655 163° South  Level Estimated
06:25PM 50.0534 133.5373 163° South  Level Estimated
06:26PM 50.0994 133.5790 163° South  Level Estimated
06:27PM 49.9649 133.6616 163° South  Level Estimated
06:28PM 49.8496 133.7321 164° South  Level Estimated
06:29PM 49.7342 133.8023 164° South  Level Estimated
06:30PM 49.6188 133.8721 164° South  Level Estimated
06:31PM 49.5034 133.9416 164° South  Level Estimated
06:32PM 49.3879 134.0107 164° South  Level Estimated
06:33PM 49.2724 134.0796 164° South  Level Estimated
06:34PM 49.1568 134.1481 164° South  Level Estimated
06:35PM 49.0412 134.2163 165° South  Level Estimated
06:36PM 48.9256 134.2842 165° South  Level Estimated
06:37PM 48.8099 134.3517 165° South  Level Estimated
06:38PM 48.6941 134.4190 165° South  Level Estimated
06:39PM 48.5784 134.4859 165° South  Level Estimated
06:40PM 48.4626 134.5526 165° South  Level Estimated
06:41PM 48.3467 134.6189 166° South  Level Estimated
06:42PM 48.2309 134.6849 166° South  Level Estimated
06:43PM 48.1149 134.7507 166° South  Level Estimated
06:44PM 47.9990 134.8161 166° South  Level Estimated
06:45PM 47.8830 134.8813 166° South  Level Estimated
06:46PM 47.7670 134.9461 167° South  Level Estimated
06:47PM 47.6509 135.0107 167° South  Level Estimated
06:48PM 47.5348 135.0750 167° South  Level Estimated
06:49PM 47.4187 135.1389 167° South  Level Estimated
06:50PM 47.3025 135.2027 167° South  Level Estimated
06:51PM 47.1863 135.2661 168° South  Level Estimated
06:52PM 47.0701 135.3293 168° South  Level Estimated
06:53PM 46.9538 135.3921 168° South  Level Estimated
06:54PM 46.8375 135.4547 169° South  Level Estimated
06:55PM 46.7211 135.5171 169° South  Level Estimated
06:56PM 46.6048 135.5791 169° South  Level Estimated
06:57PM 46.4884 135.6409 169° South  Level Estimated
06:58PM 46.3719 135.7025 170° South  Level Estimated
06:59PM 46.2555 135.7638 170° South  Level Estimated
07:00PM 46.1389 135.8248 171° South  Level Estimated
07:01PM 46.0224 135.8855 171° South  Level Estimated
07:02PM 45.9058 135.9460 171° South  Level Estimated
07:03PM 45.7892 136.0063 172° South  Level Estimated
07:04PM 45.6726 136.0663 172° South  Level Estimated
07:05PM 45.5559 136.1261 173° South  Level Estimated
07:06PM 45.4392 136.1856 174° South  Level Estimated
07:07PM 45.3225 136.2448 174° South  Level Estimated
07:08PM 45.2057 136.3038 175° South  Level Estimated
07:09PM 45.0889 136.3626 176° South  Level Estimated
07:10PM 44.9721 136.4211 177° South  Level Estimated
07:11PM 44.8553 136.4794 177° South  Level Estimated
07:12PM 44.7384 136.5375 179° South  Level Estimated
07:13PM 44.6215 136.5953 180° South  Level Estimated
07:14PM 44.5045 136.6529 181° South  Level Estimated
07:15PM 44.3876 136.7103 182° South  Level Estimated
07:16PM 44.2706 136.7674 184° South  Level Estimated
07:17PM 44.1535 136.8243 186° South  Level Estimated
07:18PM 44.0365 136.8810 188° South  Level Estimated
07:19PM 43.9194 136.9375 191° South  Level Estimated
07:20PM 43.8023 136.9937 193° South  Level Estimated
07:21PM 43.6852 137.0497 197° South  Level Estimated
07:22PM 43.5680 137.1055 201° Southwest  Level Estimated
07:23PM 43.4508 137.1611 206° Southwest  Level Estimated
07:24PM 43.3336 137.2165 212° Southwest  Level Estimated
07:25PM 43.2164 137.2716 220° Southwest  Level Estimated
07:26PM 42.6280 136.6120 48° Northeast -1  Level FlightAware Direct Aircraft Datalink
07:26PM 43.0991 137.3266 161° South  Level Estimated
07:27PM 42.9818 137.3813 161° South  Level Estimated
07:28PM 42.8645 137.4358 161° South  Level Estimated
07:29PM 42.7471 137.4901 161° South  Level Estimated
07:30PM 42.6297 137.5443 161° South  Level Estimated
07:31PM 42.5123 137.5982 161° South  Level Estimated
07:32PM 42.3949 137.6519 161° South  Level Estimated
07:33PM 42.2775 137.7054 161° South  Level Estimated
07:34PM 42.1600 137.7587 161° South  Level Estimated
07:35PM 42.0425 137.8118 161° South  Level Estimated
07:36PM 41.9250 137.8647 162° South  Level Estimated
07:37PM 41.8074 137.9174 162° South  Level Estimated
07:38PM 41.6899 137.9699 162° South  Level Estimated
07:39PM 41.5723 138.0223 162° South  Level Estimated
07:40PM 41.4547 138.0744 162° South  Level Estimated
07:41PM 41.3370 138.1264 162° South  Level Estimated
07:42PM 41.2193 138.1781 162° South  Level Estimated
07:43PM 41.1017 138.2297 162° South  Level Estimated
07:44PM 40.9839 138.2811 162° South  Level Estimated
07:45PM 40.8662 138.3323 162° South  Level Estimated
07:46PM 40.7485 138.3833 162° South  Level Estimated
07:47PM 40.6307 138.4342 162° South  Level Estimated
07:48PM 40.5129 138.4849 162° South  Level Estimated
07:49PM 40.3951 138.5354 162° South  Level Estimated
07:50PM 40.2772 138.5857 162° South  Level Estimated
07:51PM 40.1594 138.6358 162° South  Level Estimated
07:52PM 40.0415 138.6858 162° South  Level Estimated
07:53PM 39.9236 138.7356 162° South  Level Estimated
07:54PM 39.8056 138.7852 162° South  Level Estimated
07:55PM 39.6877 138.8346 205° Southwest  Level Estimated
07:55PM 39.2467 138.5722 157° South  Level Estimated
07:57PM 39.0471 138.6814 157° South  Level Estimated
07:58PM 38.9329 138.7435 157° South  Level Estimated
07:59PM 38.8187 138.8054 157° South  Level Estimated
08:00PM 38.7045 138.8671 157° South  Level Estimated
08:01PM 38.5903 138.9286 157° South  Level Estimated
08:02PM 38.4760 138.9899 157° South  Level Estimated
08:03PM 38.3617 139.0511 157° South  Level Estimated
08:04PM 38.2474 139.1120 157° South  Level Estimated
08:05PM 38.1330 139.1727 157° South  Level Estimated
08:06PM 38.0186 139.2333 157° South  Level Estimated
08:07PM 37.9042 139.2937 157° South  Level Estimated
08:08PM 37.7897 139.3538 157° South  Level Estimated
08:09PM 37.6753 139.4138 158° South  Level Estimated
08:10PM 37.5607 139.4736 158° South  Level Estimated
08:11PM 37.4462 139.5332 158° South  Level Estimated
08:12PM 37.3316 139.5927 158° South  Level Estimated
08:13PM 37.2170 139.6519 158° South  Level Estimated
08:14PM 37.1023 139.7110 158° South  Level Estimated
08:15PM 36.9877 139.7699 158° South  Level Estimated
08:16PM 36.8730 139.8286 158° South  Level Estimated
08:17PM 36.7583 139.8871 158° South  Level Estimated
08:18PM 36.6435 139.9455 158° South  Level Estimated
08:19PM 36.5287 140.0037 158° South  Level Estimated
08:20PM 36.4139 140.0618 158° South  Level Estimated
08:21PM 36.2991 140.1196 158° South  Level Estimated
08:22PM 36.1842 140.1773 158° South  Level Estimated
08:23PM 36.0693 140.2348 158° South  Level Estimated
08:24PM 35.9544 140.2921 158° South  Level Estimated
08:25PM 35.8395 140.3493 158° South  Level Estimated
08:26PM 35.7245 140.4063 338° Northwest  Level Estimated
08:27PM 35.8395 140.3493 158° South  Level Estimated
08:28PM 35.7245 140.4063 338° Northwest  Level Estimated
08:29PM 35.8395 140.3493 158° South  Level Estimated
08:30PM 35.7245 140.4063 338° Northwest  Level Estimated
08:31PM 35.8395 140.3493 158° South  Level Estimated
08:32PM 35.7245 140.4063 338° Northwest  Level Estimated
08:33PM 35.8395 140.3493 158° South  Level Estimated
08:34PM 35.7245 140.4063 338° Northwest  Level Estimated
08:35PM 35.8395 140.3493 158° South  Level Estimated
08:36PM 35.7245 140.4063 338° Northwest  Level Estimated
08:37PM 35.8395 140.3493 158° South  Level Estimated
08:38PM 35.7245 140.4063 338° Northwest  Level Estimated
08:39PM 35.8395 140.3493 158° South  Level Estimated
08:40PM 35.7245 140.4063 338° Northwest  Level Estimated
08:41PM 35.8395 140.3493 158° South  Level Estimated
08:42PM 35.7245 140.4063 158° South  Level Estimated